Time;durP1;ratioP1;P1;durP2;ratioP2;P2;SDS_P1;SDS_P2;PMS_P1;PMS_P2;Temp;Humidity;BMP_temperature;BMP_pressure;BME280_temperature;BME280_humidity;BME280_pressure;Samples;Min_cycle;Max_cycle;Signal;HPM_P1;HPM_P2
2023/02/13 00:02:16;;;;;;;10.00;7.95;;;6.90;99.90;;;;;;5066406;28;20147;-66
2023/02/13 00:04:44;;;;;;;9.35;7.65;;;7.00;99.90;;;;;;5066882;28;20098;-65
2023/02/13 00:07:10;;;;;;;8.32;7.53;;;6.90;99.90;;;;;;5065158;28;20080;-65
2023/02/13 00:09:37;;;;;;;8.13;7.32;;;6.90;99.90;;;;;;5068482;28;20036;-65
2023/02/13 00:12:04;;;;;;;12.05;7.68;;;6.80;99.90;;;;;;5066093;28;20044;-65
2023/02/13 00:14:30;;;;;;;8.80;6.88;;;6.80;99.90;;;;;;5070623;28;20064;-65
2023/02/13 00:16:56;;;;;;;10.43;7.72;;;6.80;99.90;;;;;;5050563;28;20118;-65
2023/02/13 00:19:21;;;;;;;11.32;7.85;;;6.80;99.90;;;;;;5070329;28;20040;-65
2023/02/13 00:21:47;;;;;;;12.15;8.77;;;6.80;99.90;;;;;;5052343;28;20047;-66
2023/02/13 00:24:14;;;;;;;9.57;8.52;;;6.80;99.90;;;;;;5069602;28;20033;-66
2023/02/13 00:26:40;;;;;;;10.70;8.30;;;6.80;99.90;;;;;;5051613;28;20045;-65
2023/02/13 00:29:06;;;;;;;12.73;8.18;;;6.80;99.90;;;;;;5050388;28;20044;-65
2023/02/13 00:31:32;;;;;;;13.00;8.30;;;6.80;99.90;;;;;;5069565;28;20090;-66
2023/02/13 00:33:58;;;;;;;13.07;8.77;;;6.80;99.90;;;;;;5067664;28;20036;-65
2023/02/13 00:36:24;;;;;;;12.48;7.82;;;6.80;99.90;;;;;;5069504;28;20478;-65
2023/02/13 00:38:50;;;;;;;12.25;8.75;;;6.80;99.90;;;;;;5068400;28;20055;-65
2023/02/13 00:41:16;;;;;;;12.32;8.07;;;6.80;99.90;;;;;;5069274;28;20044;-65
2023/02/13 00:43:43;;;;;;;9.70;8.30;;;6.80;99.90;;;;;;5069524;28;20036;-65
2023/02/13 00:46:09;;;;;;;12.00;8.48;;;6.70;99.90;;;;;;5050600;28;20126;-65
2023/02/13 00:48:35;;;;;;;11.38;8.57;;;6.70;99.90;;;;;;5069616;28;20478;-65
2023/02/13 00:51:02;;;;;;;15.23;9.10;;;6.70;99.90;;;;;;5049289;28;20405;-66
2023/02/13 00:53:28;;;;;;;12.10;8.73;;;6.70;99.90;;;;;;5069791;28;20036;-66
2023/02/13 00:55:54;;;;;;;10.98;8.13;;;6.70;99.90;;;;;;5049677;28;20067;-65
2023/02/13 00:58:20;;;;;;;12.75;9.70;;;6.70;99.90;;;;;;5069207;28;20041;-65
2023/02/13 01:00:46;;;;;;;13.38;8.68;;;6.70;99.90;;;;;;5066603;28;20402;-66
2023/02/13 01:03:14;;;;;;;11.50;8.90;;;6.70;99.90;;;;;;5049745;28;20218;-66
2023/02/13 01:05:40;;;;;;;10.02;8.57;;;6.60;99.90;;;;;;5069008;28;20508;-65
2023/02/13 01:08:06;;;;;;;11.65;9.05;;;6.60;99.90;;;;;;5048877;28;20101;-65
2023/02/13 01:10:32;;;;;;;14.02;9.32;;;6.60;99.90;;;;;;5051464;28;20048;-66
2023/02/13 01:12:58;;;;;;;11.55;9.15;;;6.60;99.90;;;;;;5067269;28;20040;-65
2023/02/13 01:15:24;;;;;;;14.10;8.77;;;6.60;99.90;;;;;;5051056;28;20052;-65
2023/02/13 01:17:53;;;;;;;10.02;8.77;;;6.60;99.90;;;;;;5049753;28;20127;-66
2023/02/13 01:20:19;;;;;;;12.02;9.35;;;6.50;99.90;;;;;;5050547;28;20044;-65
2023/02/13 01:22:45;;;;;;;10.35;8.77;;;6.50;99.90;;;;;;5069024;28;20052;-66
2023/02/13 01:25:11;;;;;;;13.07;9.77;;;6.50;99.90;;;;;;5048962;28;20037;-66
2023/02/13 01:27:37;;;;;;;12.45;10.05;;;6.50;99.90;;;;;;5069040;28;20048;-65
2023/02/13 01:30:09;;;;;;;13.40;9.68;;;6.50;99.90;;;;;;5048747;28;20424;-66
2023/02/13 01:32:35;;;;;;;11.98;9.35;;;6.50;99.90;;;;;;5050852;28;20052;-65
2023/02/13 01:35:01;;;;;;;12.63;9.57;;;6.50;99.90;;;;;;5066966;28;20040;-65
2023/02/13 01:37:26;;;;;;;12.20;9.82;;;6.50;99.90;;;;;;5050040;28;20127;-65
2023/02/13 01:39:53;;;;;;;10.20;9.00;;;6.50;99.90;;;;;;5049940;28;20051;-66
2023/02/13 01:42:25;;;;;;;18.95;11.07;;;6.50;99.90;;;;;;5063475;28;20636;-66
2023/02/13 01:44:58;;;;;;;10.90;9.48;;;6.50;99.90;;;;;;5067869;28;20521;-65
2023/02/13 01:47:27;;;;;;;10.35;9.05;;;6.50;99.90;;;;;;5053989;28;20037;-66
2023/02/13 01:50:05;;;;;;;12.90;9.45;;;6.40;99.90;;;;;;5049730;28;20121;-66
2023/02/13 01:52:31;;;;;;;12.90;10.15;;;6.50;99.90;;;;;;5054858;28;20040;-65
2023/02/13 01:54:57;;;;;;;12.38;10.25;;;6.40;99.90;;;;;;5066697;28;20044;-65
2023/02/13 01:57:27;;;;;;;13.38;9.95;;;6.40;99.90;;;;;;5068231;28;20047;-66
2023/02/13 01:59:58;;;;;;;16.83;11.57;;;6.40;99.90;;;;;;5065892;28;20065;-65
2023/02/13 02:02:24;;;;;;;18.17;11.25;;;6.40;99.90;;;;;;5067448;28;20119;-66
2023/02/13 02:04:51;;;;;;;16.67;11.77;;;6.40;99.90;;;;;;5066526;28;20036;-66
2023/02/13 02:07:22;;;;;;;20.50;12.13;;;6.40;99.90;;;;;;5067356;28;20065;-66
2023/02/13 02:09:50;;;;;;;15.45;12.10;;;6.50;99.90;;;;;;5067818;28;20398;-66
2023/02/13 02:12:32;;;;;;;16.65;13.00;;;6.50;99.90;;;;;;5065996;28;20060;-65
2023/02/13 02:15:00;;;;;;;15.23;11.38;;;6.50;99.90;;;;;;5067459;28;20480;-65
2023/02/13 02:17:27;;;;;;;20.05;13.20;;;6.50;99.90;;;;;;5065990;28;20044;-66
2023/02/13 02:20:22;;;;;;;21.00;12.48;;;6.50;99.90;;;;;;5068332;28;20041;-66
2023/02/13 02:23:06;;;;;;;17.70;12.77;;;6.60;99.90;;;;;;5067297;28;20498;-65
2023/02/13 02:26:05;;;;;;;19.25;12.63;;;6.60;99.90;;;;;;5065669;28;20058;-66
2023/02/13 02:28:53;;;;;;;20.42;12.63;;;6.60;99.90;;;;;;5038266;28;20041;-66
2023/02/13 02:31:52;;;;;;;19.13;14.00;;;6.60;99.90;;;;;;5048599;28;20166;-65
2023/02/13 02:34:44;;;;;;;24.23;13.18;;;6.50;99.90;;;;;;5065174;28;20059;-66
2023/02/13 02:37:55;;;;;;;21.52;14.10;;;6.50;99.90;;;;;;5067050;28;20052;-66
2023/02/13 02:40:41;;;;;;;20.90;13.40;;;6.50;99.90;;;;;;5062558;28;20051;-66
2023/02/13 02:43:34;;;;;;;26.08;13.48;;;6.40;99.90;;;;;;5047300;28;20731;-65
2023/02/13 02:46:10;;;;;;;19.65;13.45;;;6.40;99.90;;;;;;5067111;28;20049;-66
2023/02/13 02:52:12;;;;;;;20.83;14.38;;;6.40;99.90;;;;;;5065676;28;20048;-66
2023/02/13 02:55:08;;;;;;;19.13;13.75;;;6.40;99.90;;;;;;5049488;28;20121;-66
2023/02/13 03:06:32;;;;;;;18.08;13.57;;;6.30;99.90;;;;;;5066794;28;20052;-66
2023/02/13 03:14:38;;;;;;;28.25;15.55;;;6.20;99.90;;;;;;5053377;28;20063;-65
2023/02/13 03:22:52;;;;;;;21.27;13.60;;;6.20;99.90;;;;;;5047504;28;20060;-65
2023/02/13 03:25:34;;;;;;;21.08;13.48;;;6.10;99.90;;;;;;5065976;28;20075;-65
2023/02/13 03:31:30;;;;;;;20.45;14.55;;;6.10;99.90;;;;;;5064832;28;20049;-65
2023/02/13 03:34:01;;;;;;;;;;;6.10;99.90;;;;;;5066997;28;20060;-66
2023/02/13 03:39:42;;;;;;;18.70;14.52;;;6.10;99.90;;;;;;5065054;28;20049;-66
2023/02/13 03:42:20;;;;;;;18.83;13.90;;;6.10;99.90;;;;;;5066404;28;20128;-66
2023/02/13 03:45:51;;;;;;;18.40;13.75;;;6.10;99.90;;;;;;5066872;28;20123;-65
2023/02/13 03:47:40;;;;;;;22.05;14.50;;;6.00;99.90;;;;;;5068600;28;20040;-66
2023/02/13 03:50:08;;;;;;;22.05;13.93;;;6.10;99.90;;;;;;5070314;28;20362;-65
2023/02/13 03:53:05;;;;;;;20.55;14.45;;;6.00;99.90;;;;;;5051027;28;20571;-65
2023/02/13 04:01:24;;;;;;;19.13;14.27;;;6.00;99.90;;;;;;5068403;28;20053;-66
2023/02/13 04:04:04;;;;;;;20.08;14.55;;;6.00;99.90;;;;;;5069963;28;20053;-65
2023/02/13 04:06:55;;;;;;;21.38;14.23;;;6.00;99.90;;;;;;5070121;28;20111;-65
2023/02/13 04:09:26;;;;;;;24.27;15.00;;;6.00;99.90;;;;;;5038849;28;20567;-65
2023/02/13 04:12:18;;;;;;;20.90;14.90;;;6.00;99.90;;;;;;5070322;28;20140;-65
2023/02/13 04:15:16;;;;;;;19.15;13.93;;;6.00;99.90;;;;;;5054906;28;20052;-65
2023/02/13 04:18:07;;;;;;;22.02;14.63;;;6.00;99.90;;;;;;5043419;28;20406;-65
2023/02/13 04:20:33;;;;;;;20.75;13.82;;;5.90;99.90;;;;;;5068846;28;20135;-65
2023/02/13 04:23:07;;;;;;;19.63;13.35;;;5.90;99.90;;;;;;5050229;28;20612;-66
2023/02/13 04:25:38;;;;;;;18.98;13.85;;;5.90;99.90;;;;;;5034786;28;20037;-66
2023/02/13 04:28:03;;;;;;;;;;;5.90;99.90;;;;;;5070487;28;20150;-65
2023/02/13 04:30:29;;;;;;;20.92;14.40;;;5.90;99.90;;;;;;5050278;28;19947;-66
2023/02/13 04:32:55;;;;;;;21.98;14.68;;;5.90;99.90;;;;;;5069675;28;20402;-65
2023/02/13 04:35:21;;;;;;;19.20;13.90;;;5.90;99.90;;;;;;5049808;28;20048;-65
2023/02/13 04:37:47;;;;;;;21.83;14.20;;;5.90;99.90;;;;;;5051614;28;20556;-65
2023/02/13 04:40:13;;;;;;;23.48;14.18;;;5.90;99.90;;;;;;5050581;28;20072;-65
2023/02/13 04:42:39;;;;;;;21.33;14.73;;;5.90;99.90;;;;;;5069648;28;20074;-65
2023/02/13 04:45:05;;;;;;;20.85;14.20;;;5.90;99.90;;;;;;5034530;28;20049;-65
2023/02/13 04:47:31;;;;;;;22.00;13.75;;;5.90;99.90;;;;;;5068314;28;20056;-65
2023/02/13 04:49:57;;;;;;;20.33;14.38;;;5.90;99.90;;;;;;5051810;28;20058;-65
2023/02/13 04:52:22;;;;;;;20.17;14.18;;;5.80;99.90;;;;;;5067595;28;20056;-65
2023/02/13 04:54:48;;;;;;;18.13;13.15;;;5.80;99.90;;;;;;5035212;28;20147;-65
2023/02/13 04:57:14;;;;;;;18.35;13.30;;;5.80;99.90;;;;;;5067843;28;20512;-66
2023/02/13 04:59:40;;;;;;;18.98;13.93;;;5.80;99.90;;;;;;5069547;28;20355;-65
2023/02/13 05:02:06;;;;;;;22.67;14.18;;;5.80;99.90;;;;;;5050065;28;20087;-65
2023/02/13 05:04:32;;;;;;;22.75;14.15;;;5.80;99.90;;;;;;5068168;28;20131;-66
2023/02/13 05:06:58;;;;;;;22.20;14.07;;;5.80;99.90;;;;;;5051317;28;20044;-66
2023/02/13 05:09:23;;;;;;;20.55;13.50;;;5.80;99.90;;;;;;5067338;28;20052;-65
2023/02/13 05:11:53;;;;;;;23.23;14.60;;;5.80;99.90;;;;;;5051256;28;20048;-65
2023/02/13 05:14:20;;;;;;;20.75;14.63;;;5.80;99.90;;;;;;5066902;28;20505;-65
2023/02/13 05:16:48;;;;;;;20.20;14.63;;;5.80;99.90;;;;;;5069170;28;20094;-65
2023/02/13 05:19:15;;;;;;;18.80;13.90;;;5.80;99.90;;;;;;5049460;28;20087;-65
2023/02/13 05:24:25;;;;;;;20.05;14.15;;;5.80;99.90;;;;;;5053455;28;21673;-65
2023/02/13 05:26:51;;;;;;;18.55;13.02;;;5.80;99.90;;;;;;5049463;28;20391;-66
2023/02/13 05:29:21;;;;;;;19.35;13.70;;;5.80;99.90;;;;;;5068944;28;20040;-65
2023/02/13 05:31:50;;;;;;;25.45;13.98;;;5.70;99.90;;;;;;5032508;28;20142;-66
2023/02/13 05:34:16;;;;;;;21.25;13.52;;;5.70;99.90;;;;;;5069001;28;20170;-66
2023/02/13 05:36:42;;;;;;;20.63;14.10;;;5.70;99.90;;;;;;5067553;28;20111;-66
2023/02/13 05:39:08;;;;;;;20.55;12.98;;;5.70;99.90;;;;;;5068047;28;20047;-65
2023/02/13 05:41:33;;;;;;;21.33;13.73;;;5.70;99.90;;;;;;5068141;28;20044;-65
2023/02/13 05:43:59;;;;;;;18.60;12.52;;;5.60;99.90;;;;;;5049600;28;20060;-65
2023/02/13 05:46:25;;;;;;;19.67;13.93;;;5.70;99.90;;;;;;5050084;28;20502;-65
2023/02/13 05:48:51;;;;;;;22.05;13.32;;;5.60;99.90;;;;;;5066666;28;20071;-65
2023/02/13 05:51:18;;;;;;;20.60;13.77;;;5.70;99.90;;;;;;5068471;28;20574;-65
2023/02/13 05:53:44;;;;;;;20.95;14.27;;;5.60;99.90;;;;;;5066627;28;20152;-65
2023/02/13 05:56:09;;;;;;;19.70;13.98;;;5.60;99.90;;;;;;5050306;28;20133;-66
2023/02/13 05:58:36;;;;;;;23.58;13.73;;;5.60;99.90;;;;;;5067292;28;20051;-65
2023/02/13 06:01:02;;;;;;;18.98;13.85;;;5.60;99.90;;;;;;5066719;28;20543;-65
2023/02/13 06:03:29;;;;;;;24.40;14.00;;;5.60;99.90;;;;;;5067454;28;20052;-65
2023/02/13 06:05:56;;;;;;;19.80;13.55;;;5.60;99.90;;;;;;5066818;28;20549;-66
2023/02/13 06:08:22;;;;;;;23.02;14.35;;;5.60;99.90;;;;;;5049642;28;20461;-65
2023/02/13 06:10:49;;;;;;;20.95;13.07;;;5.60;99.90;;;;;;5048410;28;20470;-65
2023/02/13 06:13:15;;;;;;;23.15;13.90;;;5.60;99.90;;;;;;5068530;28;20040;-65
2023/02/13 06:15:41;;;;;;;19.10;14.77;;;5.50;99.90;;;;;;5066465;28;20055;-65
2023/02/13 06:18:08;;;;;;;24.67;15.15;;;5.60;99.90;;;;;;5067053;28;20044;-65
2023/02/13 06:20:33;;;;;;;23.33;14.57;;;5.60;99.90;;;;;;5067570;28;20040;-65
2023/02/13 06:23:00;;;;;;;19.67;13.55;;;5.60;99.90;;;;;;5066112;28;20049;-65
2023/02/13 06:25:25;;;;;;;26.33;15.43;;;5.60;99.90;;;;;;5067746;28;20132;-65
2023/02/13 06:27:51;;;;;;;19.67;15.23;;;5.60;99.90;;;;;;5066351;28;20127;-65
2023/02/13 06:30:18;;;;;;;25.23;15.48;;;5.60;99.90;;;;;;5067626;28;20058;-65
2023/02/13 06:32:47;;;;;;;22.98;16.00;;;5.60;99.90;;;;;;5047685;28;20657;-65
2023/02/13 06:35:13;;;;;;;22.13;16.23;;;5.60;99.90;;;;;;5067006;28;20145;-66
2023/02/13 06:37:39;;;;;;;25.42;15.13;;;5.60;99.90;;;;;;5067066;28;20052;-65
2023/02/13 06:40:07;;;;;;;24.55;17.38;;;5.60;99.90;;;;;;5066104;28;20408;-65
2023/02/13 06:42:32;;;;;;;26.23;17.98;;;5.60;99.90;;;;;;5067287;28;20041;-65
2023/02/13 06:44:58;;;;;;;22.30;16.45;;;5.60;99.90;;;;;;5065880;28;20047;-65
2023/02/13 06:47:24;;;;;;;22.27;15.55;;;5.60;99.90;;;;;;5067299;28;20044;-65
2023/02/13 06:49:50;;;;;;;22.92;15.25;;;5.60;99.90;;;;;;5047117;28;20052;-65
2023/02/13 06:52:15;;;;;;;26.08;16.83;;;5.60;99.90;;;;;;5067444;28;20044;-65
2023/02/13 06:54:41;;;;;;;25.90;16.25;;;5.60;99.90;;;;;;5066558;28;20510;-65
2023/02/13 06:57:07;;;;;;;28.73;17.65;;;5.60;99.90;;;;;;5048223;28;20046;-65
2023/02/13 06:59:32;;;;;;;32.42;18.98;;;5.60;99.90;;;;;;5066850;28;20378;-65
2023/02/13 07:01:58;;;;;;;24.90;16.25;;;5.60;99.90;;;;;;5046946;28;20053;-66
2023/02/13 07:04:24;;;;;;;22.75;15.70;;;5.60;99.90;;;;;;5067111;28;20043;-65
2023/02/13 07:06:50;;;;;;;27.63;16.58;;;5.60;99.90;;;;;;5030416;28;20120;-65
2023/02/13 07:09:15;;;;;;;23.23;15.30;;;5.60;99.90;;;;;;5049014;28;20125;-65
2023/02/13 07:11:41;;;;;;;22.52;15.60;;;5.60;99.90;;;;;;5065859;28;20131;-65
2023/02/13 07:14:08;;;;;;;23.27;15.88;;;5.60;99.90;;;;;;5066493;28;20048;-65
2023/02/13 07:16:34;;;;;;;22.00;15.52;;;5.60;99.90;;;;;;5066441;28;20379;-65
2023/02/13 07:19:00;;;;;;;30.27;16.30;;;5.60;99.90;;;;;;5047360;28;20051;-65
2023/02/13 07:21:26;;;;;;;28.42;17.48;;;5.60;99.90;;;;;;5048747;28;20037;-65
2023/02/13 07:23:52;;;;;;;24.00;15.10;;;5.60;99.90;;;;;;5046872;28;20131;-65
2023/02/13 07:26:18;;;;;;;26.58;16.02;;;5.60;99.90;;;;;;5066938;28;20546;-65
2023/02/13 07:28:44;;;;;;;25.25;16.67;;;5.60;99.90;;;;;;5065310;28;20047;-65
2023/02/13 07:31:10;;;;;;;24.73;17.13;;;5.60;99.90;;;;;;5048361;28;20128;-65
2023/02/13 07:33:36;;;;;;;27.60;16.67;;;5.50;99.90;;;;;;5065912;28;20123;-65
2023/02/13 07:36:03;;;;;;;28.65;17.63;;;5.60;99.90;;;;;;5065863;28;20052;-65
2023/02/13 07:38:30;;;;;;;25.98;16.42;;;5.60;99.90;;;;;;5048809;28;20044;-65
2023/02/13 07:41:00;;;;;;;26.88;18.25;;;5.60;99.90;;;;;;5057619;28;20067;-65
2023/02/13 07:43:26;;;;;;;33.42;18.58;;;5.70;99.90;;;;;;5048681;28;20076;-65
2023/02/13 07:45:54;;;;;;;26.70;17.33;;;5.70;99.90;;;;;;5065066;28;20048;-65
2023/02/13 07:48:21;;;;;;;31.42;18.02;;;5.70;99.90;;;;;;5066829;28;20076;-65
2023/02/13 07:50:47;;;;;;;25.27;17.13;;;5.70;99.90;;;;;;5065837;28;20051;-65
2023/02/13 07:53:13;;;;;;;25.85;17.58;;;5.70;99.90;;;;;;5030831;28;20044;-65
2023/02/13 07:55:39;;;;;;;27.80;17.58;;;5.70;99.90;;;;;;5015286;28;20066;-65
2023/02/13 07:58:05;;;;;;;28.42;19.20;;;5.70;99.90;;;;;;5065240;28;20040;-65
2023/02/13 08:00:30;;;;;;;26.23;17.70;;;5.80;99.90;;;;;;5066470;28;20506;-65
2023/02/13 08:03:00;;;;;;;30.33;18.60;;;5.80;99.90;;;;;;5064584;28;20052;-65
2023/02/13 08:05:26;;;;;;;30.30;18.48;;;5.80;99.90;;;;;;5066229;28;20052;-65
2023/02/13 08:07:52;;;;;;;30.48;17.73;;;5.80;99.90;;;;;;5047426;28;20576;-65
2023/02/13 08:13:04;;;;;;;27.02;16.50;;;5.90;99.90;;;;;;5038600;28;20147;-65
2023/02/13 08:15:29;;;;;;;27.73;18.58;;;5.90;99.90;;;;;;5038887;28;20057;-65
2023/02/13 08:17:55;;;;;;;27.70;18.08;;;5.90;99.90;;;;;;5048596;28;20582;-65
2023/02/13 08:20:22;;;;;;;29.50;17.05;;;5.90;99.90;;;;;;5047569;28;20044;-65
2023/02/13 08:22:49;;;;;;;28.10;17.17;;;6.00;99.90;;;;;;5048338;28;20052;-65
2023/02/13 08:25:15;;;;;;;27.17;18.95;;;6.00;99.90;;;;;;5048190;28;20054;-65
2023/02/13 08:27:41;;;;;;;26.83;18.27;;;6.00;99.90;;;;;;5043988;28;20119;-65
2023/02/13 08:30:08;;;;;;;28.25;19.08;;;6.00;99.90;;;;;;5067142;28;20123;-65
2023/02/13 08:32:34;;;;;;;25.48;17.33;;;6.10;99.90;;;;;;5048731;28;20094;-65
2023/02/13 08:34:59;;;;;;;27.40;17.52;;;6.10;99.90;;;;;;5051582;28;20036;-65
2023/02/13 08:37:25;;;;;;;38.63;18.17;;;6.10;99.90;;;;;;5050359;28;20805;-65
2023/02/13 08:39:51;;;;;;;34.40;19.00;;;6.20;99.90;;;;;;5070029;28;20044;-65
2023/02/13 08:42:17;;;;;;;27.50;18.13;;;6.20;99.90;;;;;;5050794;28;20131;-65
2023/02/13 08:44:43;;;;;;;29.35;17.52;;;6.20;99.90;;;;;;5068879;28;20041;-65
2023/02/13 08:47:09;;;;;;;27.10;18.15;;;6.20;99.90;;;;;;5069514;28;20033;-65
2023/02/13 08:49:35;;;;;;;35.65;17.98;;;6.20;99.90;;;;;;5050589;28;20117;-65
2023/02/13 08:52:02;;;;;;;29.52;17.15;;;6.30;99.90;;;;;;5069349;28;20048;-65
2023/02/13 08:54:28;;;;;;;23.48;16.83;;;6.30;99.90;;;;;;5068694;28;20063;-65
2023/02/13 08:56:54;;;;;;;24.85;17.38;;;6.30;99.90;;;;;;5051142;28;20045;-65
2023/02/13 08:59:19;;;;;;;28.60;17.38;;;6.40;99.90;;;;;;5033700;28;20519;-65
2023/02/13 09:01:46;;;;;;;27.17;17.38;;;6.30;99.90;;;;;;5069100;28;20084;-65
2023/02/13 09:04:14;;;;;;;23.85;16.50;;;6.40;99.90;;;;;;5066919;28;20394;-65
2023/02/13 09:06:41;;;;;;;27.00;17.65;;;6.40;99.90;;;;;;5050682;28;20044;-65
2023/02/13 09:09:07;;;;;;;27.52;17.85;;;6.40;99.90;;;;;;5063681;28;21021;-65
2023/02/13 09:11:33;;;;;;;26.02;16.63;;;6.40;99.90;;;;;;5065070;28;20363;-65
2023/02/13 09:13:59;;;;;;;26.55;17.15;;;6.40;99.90;;;;;;5068737;28;20061;-65
2023/02/13 09:16:24;;;;;;;27.05;16.40;;;6.50;99.90;;;;;;5067553;28;20067;-65
2023/02/13 09:18:51;;;;;;;29.77;18.42;;;6.50;99.90;;;;;;5068829;28;20505;-65
2023/02/13 09:21:19;;;;;;;25.35;16.30;;;6.50;99.90;;;;;;5068014;28;20049;-65
2023/02/13 09:23:44;;;;;;;24.70;16.40;;;6.60;99.90;;;;;;5068782;28;20040;-65
2023/02/13 09:26:13;;;;;;;23.90;16.77;;;6.60;99.90;;;;;;5068910;28;20044;-65
2023/02/13 09:28:39;;;;;;;23.42;16.73;;;6.60;99.90;;;;;;5066706;28;20056;-65
2023/02/13 09:31:09;;;;;;;23.75;15.73;;;6.70;99.90;;;;;;5067923;28;20482;-65
2023/02/13 09:33:35;;;;;;;24.70;16.42;;;6.70;99.90;;;;;;5033704;28;20045;-65
2023/02/13 09:36:10;;;;;;;26.42;16.67;;;6.70;99.90;;;;;;5068678;28;20411;-65
2023/02/13 09:38:36;;;;;;;25.38;15.60;;;6.80;99.90;;;;;;5050000;28;21126;-64
2023/02/13 09:41:06;;;;;;;25.27;15.75;;;6.80;99.90;;;;;;5033040;28;20124;-65
2023/02/13 09:43:54;;;;;;;25.10;14.98;;;6.80;99.90;;;;;;5064613;28;20560;-65
2023/02/13 09:46:35;;;;;;;19.88;14.73;;;6.80;99.90;;;;;;5066786;28;20446;-65
2023/02/13 09:49:13;;;;;;;20.95;14.95;;;6.90;99.90;;;;;;5066544;28;20135;-65
2023/02/13 09:51:41;;;;;;;22.40;14.75;;;6.90;99.90;;;;;;5067973;28;20127;-65
2023/02/13 09:54:11;;;;;;;19.98;14.05;;;6.90;99.90;;;;;;5048576;28;20161;-65
2023/02/13 09:56:48;;;;;;;24.77;14.57;;;6.90;99.90;;;;;;5067722;28;20440;-65
2023/02/13 09:59:38;;;;;;;19.65;13.75;;;6.90;99.90;;;;;;5047909;28;20406;-65
2023/02/13 10:02:39;;;;;;;20.55;13.48;;;6.90;99.90;;;;;;5067918;28;20067;-65
2023/02/13 10:05:27;;;;;;;24.40;13.95;;;7.00;99.90;;;;;;5049627;28;20055;-65
2023/02/13 10:08:15;;;;;;;22.08;14.00;;;7.00;99.90;;;;;;5066223;28;20143;-65
2023/02/13 10:10:56;;;;;;;19.58;13.60;;;7.00;99.90;;;;;;5068369;28;20071;-65
2023/02/13 10:13:40;;;;;;;22.58;12.95;;;7.10;99.90;;;;;;5067748;28;20044;-65
2023/02/13 10:16:13;;;;;;;18.65;13.98;;;7.10;99.90;;;;;;5048832;28;20067;-65
2023/02/13 10:18:51;;;;;;;25.45;14.35;;;7.10;99.90;;;;;;5033852;28;20036;-65
2023/02/13 10:21:32;;;;;;;21.50;14.60;;;7.10;99.90;;;;;;5066165;28;20052;-65
2023/02/13 10:24:15;;;;;;;22.88;13.75;;;7.10;99.90;;;;;;5033251;28;20052;-65
2023/02/13 10:26:44;;;;;;;30.17;14.07;;;7.10;99.90;;;;;;5038153;28;20517;-65
2023/02/13 10:30:03;;;;;;;22.55;13.95;;;7.10;99.90;;;;;;5066044;28;20456;-65
2023/02/13 10:32:42;;;;;;;26.00;14.05;;;7.10;99.90;;;;;;5000615;28;20218;-65
2023/02/13 10:35:29;;;;;;;23.40;13.40;;;7.20;99.90;;;;;;4976678;28;20064;-65
2023/02/13 10:37:58;;;;;;;22.85;13.75;;;7.20;99.90;;;;;;5038654;28;20495;-65
2023/02/13 10:40:32;;;;;;;21.98;13.82;;;7.30;99.90;;;;;;5049714;28;20044;-65
2023/02/13 10:43:09;;;;;;;21.65;14.35;;;7.30;99.90;;;;;;5048299;28;20127;-65
2023/02/13 10:45:38;;;;;;;20.90;13.60;;;7.30;99.90;;;;;;5068006;28;20033;-65
2023/02/13 10:48:42;;;;;;;21.17;13.27;;;7.30;99.90;;;;;;5048970;28;20052;-65
2023/02/13 10:51:44;;;;;;;22.52;14.30;;;7.30;99.90;;;;;;5065901;28;20102;-65
2023/02/13 10:54:28;;;;;;;19.27;13.10;;;7.30;99.90;;;;;;5014051;28;20171;-65
2023/02/13 10:57:17;;;;;;;22.27;13.50;;;7.30;99.90;;;;;;5049981;28;20113;-65
2023/02/13 10:59:56;;;;;;;18.75;13.02;;;7.30;99.90;;;;;;5052660;28;20084;-65
2023/02/13 11:02:31;;;;;;;21.05;12.88;;;7.30;99.90;;;;;;5060891;28;20537;-65
2023/02/13 11:05:14;;;;;;;22.90;13.35;;;7.30;99.90;;;;;;5048742;28;20110;-65
2023/02/13 11:07:41;;;;;;;22.42;13.85;;;7.30;99.90;;;;;;5048301;28;20044;-65
2023/02/13 11:10:22;;;;;;;21.77;13.93;;;7.40;99.90;;;;;;5067171;28;20052;-65
2023/02/13 11:12:48;;;;;;;20.67;13.00;;;7.40;99.90;;;;;;5065553;28;20513;-65
2023/02/13 11:15:32;;;;;;;23.80;14.15;;;7.30;99.90;;;;;;5067164;28;20041;-65
2023/02/13 11:18:10;;;;;;;23.48;13.73;;;7.40;99.90;;;;;;5048738;28;20513;-65
2023/02/13 11:20:43;;;;;;;20.08;12.93;;;7.40;99.90;;;;;;5066532;28;20087;-65
2023/02/13 11:23:29;;;;;;;21.67;13.10;;;7.40;99.90;;;;;;5048863;28;20393;-65
2023/02/13 11:26:03;;;;;;;21.50;14.05;;;7.40;99.90;;;;;;5048746;28;20071;-65
2023/02/13 11:28:44;;;;;;;20.02;13.45;;;7.40;99.90;;;;;;5048928;28;20567;-65
2023/02/13 11:31:22;;;;;;;20.73;12.48;;;7.40;99.90;;;;;;5066863;28;20060;-65
2023/02/13 11:33:48;;;;;;;19.25;12.85;;;7.40;99.90;;;;;;5065134;28;20047;-65
2023/02/13 11:36:16;;;;;;;19.33;13.20;;;7.40;99.90;;;;;;5066348;28;20032;-65
2023/02/13 11:38:42;;;;;;;24.00;13.43;;;7.50;99.90;;;;;;5047504;28;20041;-65
2023/02/13 11:41:13;;;;;;;19.10;13.13;;;7.50;99.90;;;;;;5067519;28;20376;-65
2023/02/13 11:43:52;;;;;;;20.98;12.57;;;7.50;99.90;;;;;;5047760;28;20054;-65
2023/02/13 11:46:24;;;;;;;18.65;12.98;;;7.60;99.90;;;;;;5047764;28;20497;-65
2023/02/13 11:49:00;;;;;;;19.35;13.55;;;7.60;99.90;;;;;;5066396;28;20096;-65
2023/02/13 11:51:49;;;;;;;21.42;13.25;;;7.60;99.90;;;;;;5047269;28;20505;-65
2023/02/13 11:54:32;;;;;;;22.38;13.30;;;7.60;99.90;;;;;;5055885;28;20067;-65
2023/02/13 11:57:21;;;;;;;20.80;12.68;;;7.60;99.90;;;;;;5067020;28;20052;-65
2023/02/13 11:59:50;;;;;;;20.42;13.13;;;7.60;99.90;;;;;;5060034;28;20047;-65
2023/02/13 12:02:47;;;;;;;21.50;13.45;;;7.60;99.90;;;;;;5066399;28;20075;-65
2023/02/13 12:05:15;;;;;;;21.13;13.30;;;7.60;99.90;;;;;;5044342;28;20466;-65
2023/02/13 12:07:43;;;;;;;21.15;13.32;;;7.70;99.90;;;;;;5062376;28;20045;-65
2023/02/13 12:10:26;;;;;;;20.20;13.25;;;7.70;99.90;;;;;;5070221;28;20121;-65
2023/02/13 12:13:14;;;;;;;21.23;12.90;;;7.80;99.90;;;;;;5069201;28;20040;-65
2023/02/13 12:15:41;;;;;;;20.58;13.05;;;7.80;99.90;;;;;;5070345;28;20078;-65
2023/02/13 12:18:07;;;;;;;22.73;13.45;;;7.80;99.90;;;;;;5069394;28;20575;-65
2023/02/13 12:20:56;;;;;;;28.52;14.43;;;7.80;99.90;;;;;;5051572;28;20052;-65
2023/02/13 12:23:51;;;;;;;23.75;13.88;;;7.80;99.90;;;;;;5070120;28;20464;-65
2023/02/13 12:26:33;;;;;;;22.27;14.15;;;7.80;99.90;;;;;;5068833;28;20052;-65
2023/02/13 12:29:28;;;;;;;19.60;13.32;;;7.80;99.90;;;;;;5070362;28;20049;-64
2023/02/13 12:32:47;;;;;;;24.33;13.55;;;7.90;99.90;;;;;;5060160;28;20087;-65
2023/02/13 12:35:41;;;;;;;26.88;14.10;;;7.90;99.90;;;;;;4987081;28;20046;-65
2023/02/13 12:38:21;;;;;;;25.70;14.75;;;7.90;99.90;;;;;;5065347;28;20159;-65
2023/02/13 12:40:47;;;;;;;27.75;15.20;;;7.90;99.90;;;;;;5070632;28;20044;-65
2023/02/13 12:43:23;;;;;;;21.85;14.48;;;7.90;99.90;;;;;;5068112;28;20563;-65
2023/02/13 12:46:31;;;;;;;20.17;14.00;;;7.90;99.90;;;;;;5070676;28;20060;-64
2023/02/13 12:49:29;;;;;;;25.88;14.50;;;7.90;99.90;;;;;;4969000;28;20175;-65
2023/02/13 12:52:30;;;;;;;22.10;14.05;;;8.00;99.90;;;;;;5050905;28;20349;-65
2023/02/13 12:55:31;;;;;;;21.00;13.73;;;8.00;99.90;;;;;;5069749;28;20127;-65
2023/02/13 12:58:25;;;;;;;23.38;14.52;;;8.00;99.90;;;;;;4984813;28;20140;-65
2023/02/13 13:00:57;;;;;;;20.88;13.98;;;8.10;99.90;;;;;;5068272;28;20465;-65
2023/02/13 13:03:47;;;;;;;21.88;14.57;;;8.10;99.90;;;;;;5050556;28;20052;-65
2023/02/13 13:06:19;;;;;;;;;;;8.20;99.90;;;;;;5070100;28;20528;-65
2023/02/13 13:09:01;;;;;;;23.58;14.10;;;8.00;99.90;;;;;;5049714;28;19924;-64
2023/02/13 13:11:49;;;;;;;21.58;14.02;;;8.00;99.90;;;;;;5057220;28;20033;-65
2023/02/13 13:14:29;;;;;;;24.00;15.00;;;8.00;99.90;;;;;;5050172;28;20055;-66
2023/02/13 13:17:20;;;;;;;25.52;14.65;;;8.10;99.90;;;;;;5068820;28;20043;-66
2023/02/13 13:19:54;;;;;;;21.48;14.05;;;8.10;99.90;;;;;;5057305;28;20060;-66
2023/02/13 13:22:31;;;;;;;20.98;13.40;;;8.10;99.90;;;;;;5067763;28;20056;-66
2023/02/13 13:25:06;;;;;;;19.73;14.05;;;8.20;99.90;;;;;;5056244;28;20124;-66
2023/02/13 13:27:38;;;;;;;19.73;13.63;;;8.20;99.90;;;;;;5033510;28;20052;-66
2023/02/13 13:30:16;;;;;;;23.55;14.57;;;8.20;99.90;;;;;;5055356;28;20554;-66
2023/02/13 13:32:44;;;;;;;24.30;14.18;;;8.20;99.90;;;;;;5068499;28;20040;-66
2023/02/13 13:35:18;;;;;;;23.55;14.15;;;8.20;99.90;;;;;;5054436;28;20437;-67
2023/02/13 13:38:16;;;;;;;23.45;15.50;;;8.30;99.90;;;;;;5066529;28;20888;-66
2023/02/13 13:41:04;;;;;;;24.45;15.20;;;8.30;99.90;;;;;;5066387;28;20048;-67
2023/02/13 13:44:07;;;;;;;20.75;14.70;;;8.30;99.90;;;;;;5066698;28;20040;-66
2023/02/13 13:46:56;;;;;;;23.10;14.10;;;8.30;99.90;;;;;;5047277;28;20060;-66
2023/02/13 13:49:23;;;;;;;25.38;15.48;;;8.40;99.90;;;;;;5068801;28;20052;-66
2023/02/13 13:51:48;;;;;;;27.63;14.90;;;8.40;99.90;;;;;;5067108;28;20071;-66